Time;durP1;ratioP1;P1;durP2;ratioP2;P2;SDS_P1;SDS_P2;PMS_P1;PMS_P2;Temp;Humidity;BMP_temperature;BMP_pressure;BME280_temperature;BME280_humidity;BME280_pressure;Samples;Min_cycle;Max_cycle;Signal;HPM_P1;HPM_P2
2022/10/30 00:00:05;;;;;;;15.40;7.38;;;;;;;11.37;100.00;99157.25;5047445;28;20021;-74
2022/10/30 00:02:30;;;;;;;22.20;7.90;;;;;;;11.38;100.00;99163.50;5044498;28;20112;-74
2022/10/30 00:04:55;;;;;;;17.50;7.80;;;;;;;11.55;100.00;99182.97;5045040;28;20112;-74
2022/10/30 00:07:21;;;;;;;20.13;8.23;;;;;;;11.48;100.00;99157.72;5060685;28;20490;-74
2022/10/30 00:09:46;;;;;;;19.13;7.57;;;;;;;11.40;100.00;99156.03;5044668;28;20049;-74
2022/10/30 00:12:11;;;;;;;12.38;6.68;;;;;;;11.53;100.00;99180.47;5041780;28;20087;-74
2022/10/30 00:14:37;;;;;;;12.38;7.53;;;;;;;11.52;100.00;99181.50;5063441;28;20029;-74
2022/10/30 00:17:02;;;;;;;15.07;7.90;;;;;;;11.42;100.00;99164.75;5050525;28;20495;-74
2022/10/30 00:19:27;;;;;;;22.67;8.43;;;;;;;11.52;100.00;99189.63;5044948;28;20025;-74
2022/10/30 00:21:53;;;;;;;18.15;7.97;;;;;;;11.45;100.00;99177.06;5048780;28;20032;-74
2022/10/30 00:24:18;;;;;;;16.45;7.93;;;;;;;11.85;100.00;99191.69;5065732;28;20399;-74
2022/10/30 00:26:44;;;;;;;19.67;8.25;;;;;;;12.06;100.00;99191.56;5046313;28;20402;-75
2022/10/30 00:29:09;;;;;;;19.33;7.43;;;;;;;11.91;100.00;99174.63;5050530;28;20496;-74
2022/10/30 00:31:34;;;;;;;20.83;7.13;;;;;;;11.87;100.00;99177.94;5052395;28;20025;-74
2022/10/30 00:33:59;;;;;;;17.38;7.55;;;;;;;11.81;100.00;99172.25;5045060;28;20033;-73
2022/10/30 00:36:25;;;;;;;15.80;6.80;;;;;;;11.73;100.00;99169.72;5042783;28;20111;-74
2022/10/30 00:38:50;;;;;;;20.58;6.90;;;;;;;11.73;100.00;99171.59;5044054;28;20021;-74
2022/10/30 00:41:18;;;;;;;13.80;7.15;;;;;;;11.67;100.00;99167.00;5045337;28;20501;-74
2022/10/30 00:43:44;;;;;;;14.77;7.68;;;;;;;11.74;100.00;99154.31;5045913;28;20025;-74
2022/10/30 00:46:34;;;;;;;22.35;7.68;;;;;;;11.81;100.00;99174.97;5061101;28;20496;-74
2022/10/30 00:49:11;;;;;;;22.67;7.35;;;;;;;11.92;100.00;99176.31;5056228;28;20426;-74
2022/10/30 00:51:40;;;;;;;22.67;7.90;;;;;;;11.95;100.00;99178.63;5046990;28;20033;-74
2022/10/30 00:54:06;;;;;;;;;;;;;;;11.90;100.00;99170.25;5063767;28;20041;-74
2022/10/30 00:56:32;;;;;;;21.25;7.80;;;;;;;11.67;100.00;99145.31;5043206;28;20016;-74
2022/10/30 00:59:12;;;;;;;26.73;7.55;;;;;;;11.77;100.00;99173.72;5043242;28;20025;-74
2022/10/30 01:01:41;;;;;;;19.17;6.47;;;;;;;11.62;100.00;99154.88;5045737;28;20037;-74
2022/10/30 01:04:06;;;;;;;30.02;6.95;;;;;;;11.62;100.00;99152.16;5045224;28;20033;-74
2022/10/30 01:06:34;;;;;;;14.95;5.53;;;;;;;11.61;100.00;99145.06;5051163;28;20037;-74
2022/10/30 01:09:01;;;;;;;13.23;5.70;;;;;;;11.67;100.00;99150.72;5046431;28;20088;-74
2022/10/30 01:11:26;;;;;;;16.13;6.15;;;;;;;11.73;100.00;99152.63;5051076;28;20024;-73
2022/10/30 01:13:54;;;;;;;23.35;6.13;;;;;;;11.72;100.00;99129.28;5048684;28;20029;-74
2022/10/30 01:16:31;;;;;;;19.77;6.35;;;;;;;11.90;100.00;99162.13;5052345;28;20028;-74
2022/10/30 01:19:02;;;;;;;13.35;5.97;;;;;;;11.89;100.00;99157.72;5052058;28;20037;-74
2022/10/30 01:21:45;;;;;;;15.95;5.78;;;;;;;11.77;100.00;99145.78;5068540;28;20048;-74
2022/10/30 01:24:16;;;;;;;20.83;5.75;;;;;;;11.81;100.00;99149.72;5045816;28;20033;-77
2022/10/30 01:27:03;;;;;;;18.20;7.55;;;;;;;11.76;100.00;99142.22;5048540;28;20029;-75
2022/10/30 01:29:47;;;;;;;19.27;6.20;;;;;;;11.73;100.00;99147.19;5062668;28;20036;-75
2022/10/30 01:32:50;;;;;;;18.15;5.90;;;;;;;11.61;100.00;99128.81;5044598;28;20033;-75
2022/10/30 01:35:27;;;;;;;13.85;5.82;;;;;;;11.70;100.00;99131.34;5061960;28;20029;-75
2022/10/30 01:37:58;;;;;;;17.75;6.50;;;;;;;11.65;100.00;99128.41;5049453;28;20024;-75
2022/10/30 01:40:23;;;;;;;12.27;6.10;;;;;;;11.82;100.00;99121.59;5050699;28;20538;-75
2022/10/30 01:42:54;;;;;;;15.50;5.90;;;;;;;11.66;100.00;99102.97;5069941;28;20082;-75
2022/10/30 01:45:46;;;;;;;19.42;6.47;;;;;;;11.92;100.00;99113.09;5053262;28;20032;-74
2022/10/30 01:48:30;;;;;;;19.50;6.22;;;;;;;11.83;100.00;99112.41;5043299;28;20028;-75
2022/10/30 01:51:16;;;;;;;13.13;6.00;;;;;;;11.67;100.00;99094.63;5051649;28;20498;-75
2022/10/30 01:53:56;;;;;;;13.98;5.70;;;;;;;11.62;100.00;99100.66;5054216;28;20043;-75
2022/10/30 01:56:48;;;;;;;16.75;5.90;;;;;;;11.62;100.00;99111.50;5056284;28;20027;-75
2022/10/30 01:59:29;;;;;;;18.50;7.28;;;;;;;11.59;100.00;99111.09;5036102;28;20037;-75
2022/10/30 02:01:55;;;;;;;36.20;7.45;;;;;;;11.41;100.00;99090.78;5039819;28;20029;-75
2022/10/30 02:04:21;;;;;;;19.83;6.85;;;;;;;11.40;100.00;99099.13;5044425;28;20120;-76
2022/10/30 02:06:47;;;;;;;18.45;7.25;;;;;;;11.35;100.00;99088.06;5047154;28;20112;-75
2022/10/30 02:09:15;;;;;;;12.75;6.70;;;;;;;11.43;100.00;99109.56;5051197;28;20033;-75
2022/10/30 02:11:41;;;;;;;20.17;6.22;;;;;;;11.43;100.00;99123.09;5048436;28;20025;-75
2022/10/30 02:14:08;;;;;;;18.13;6.47;;;;;;;11.26;100.00;99091.97;5046310;28;20037;-75
2022/10/30 02:16:37;;;;;;;15.48;7.72;;;;;;;11.36;100.00;99108.69;5048799;28;20708;-75
2022/10/30 02:19:03;;;;;;;15.32;7.10;;;;;;;11.41;100.00;99122.47;5049572;28;20020;-75
2022/10/30 02:21:29;;;;;;;14.52;6.22;;;;;;;11.40;100.00;99128.94;5043997;28;20039;-75
2022/10/30 02:23:54;;;;;;;26.55;6.75;;;;;;;11.36;100.00;99124.94;5044554;28;20055;-75
2022/10/30 02:26:19;;;;;;;12.18;6.35;;;;;;;11.39;100.00;99128.06;5044743;28;20123;-75
2022/10/30 02:28:45;;;;;;;18.50;6.45;;;;;;;11.34;100.00;99072.81;5044315;28;20043;-75
2022/10/30 02:31:10;;;;;;;13.68;5.65;;;;;;;11.71;100.00;99090.50;5071827;28;20024;-75
2022/10/30 02:33:35;;;;;;;14.13;6.63;;;;;;;11.68;100.00;99088.16;5051459;28;20415;-75
2022/10/30 02:36:01;;;;;;;9.85;6.07;;;;;;;11.62;100.00;99081.69;5044490;28;20035;-75
2022/10/30 02:38:26;;;;;;;11.95;6.18;;;;;;;11.70;100.00;99104.25;5050325;28;20729;-75
2022/10/30 02:40:51;;;;;;;20.15;7.03;;;;;;;11.70;100.00;99091.53;5051614;28;20096;-75
2022/10/30 02:43:16;;;;;;;12.93;6.57;;;;;;;11.90;100.00;99102.47;5051616;28;20032;-77
2022/10/30 02:45:42;;;;;;;16.80;7.00;;;;;;;11.81;100.00;99100.94;5045942;28;20032;-75
2022/10/30 02:48:07;;;;;;;18.83;7.30;;;;;;;11.59;100.00;99081.28;5046734;28;20028;-75
2022/10/30 02:50:32;;;;;;;16.35;5.95;;;;;;;11.71;100.00;99092.34;5049670;28;20394;-74
2022/10/30 02:52:58;;;;;;;13.00;6.05;;;;;;;11.56;100.00;99097.94;5048659;28;20025;-75
2022/10/30 02:55:23;;;;;;;14.05;5.75;;;;;;;11.46;100.00;99105.63;5047889;28;20056;-75
2022/10/30 02:57:48;;;;;;;19.58;6.22;;;;;;;11.29;100.00;99095.13;5045036;28;20559;-75
2022/10/30 03:00:14;;;;;;;14.23;5.65;;;;;;;11.13;100.00;99098.13;5045375;28;20029;-75
2022/10/30 03:02:39;;;;;;;11.32;5.00;;;;;;;11.10;100.00;99103.97;5057180;28;20099;-75
2022/10/30 03:05:05;;;;;;;13.15;6.13;;;;;;;10.87;100.00;99078.00;5050715;28;20033;-76
2022/10/30 03:07:30;;;;;;;11.23;5.85;;;;;;;10.83;100.00;99078.59;5045730;28;20024;-75
2022/10/30 03:09:55;;;;;;;15.52;5.43;;;;;;;10.81;100.00;99069.84;5067628;28;20032;-75
2022/10/30 03:12:21;;;;;;;18.88;5.78;;;;;;;11.06;100.00;99125.19;5045168;28;20029;-75
2022/10/30 03:14:46;;;;;;;9.85;5.28;;;;;;;10.73;100.00;99079.78;5051133;28;20029;-75
2022/10/30 03:17:12;;;;;;;13.75;5.70;;;;;;;10.79;100.00;99112.50;5051593;28;20056;-75
2022/10/30 03:19:37;;;;;;;13.10;5.82;;;;;;;10.63;100.00;99102.81;5051317;28;20132;-75
2022/10/30 03:22:03;;;;;;;11.52;5.75;;;;;;;10.69;100.00;99123.69;5062000;28;20035;-75
2022/10/30 03:24:28;;;;;;;14.00;5.90;;;;;;;10.75;100.00;99121.00;5047436;28;20024;-75
2022/10/30 03:26:53;;;;;;;15.98;6.00;;;;;;;10.70;100.00;99120.75;5041762;28;20028;-75
2022/10/30 03:29:18;;;;;;;12.15;5.80;;;;;;;10.72;100.00;99139.53;5050302;28;20033;-75
2022/10/30 03:31:44;;;;;;;21.42;5.53;;;;;;;10.89;100.00;99121.09;5052755;28;20025;-74
2022/10/30 03:34:09;;;;;;;18.38;4.93;;;;;;;10.92;100.00;99099.06;5045711;28;20029;-75
2022/10/30 03:36:34;;;;;;;13.52;5.05;;;;;;;11.07;100.00;99120.59;5048266;28;20024;-75
2022/10/30 03:39:00;;;;;;;13.60;5.30;;;;;;;11.01;100.00;99108.69;5052719;28;20021;-75
2022/10/30 03:41:25;;;;;;;16.40;5.63;;;;;;;10.93;100.00;99114.28;5047914;28;20033;-75
2022/10/30 03:43:50;;;;;;;13.40;5.45;;;;;;;10.75;100.00;99112.91;5044681;28;20021;-74
2022/10/30 03:46:16;;;;;;;11.73;5.35;;;;;;;10.81;100.00;99132.09;5045995;28;20143;-75
2022/10/30 03:48:41;;;;;;;13.70;5.57;;;;;;;10.75;100.00;99133.72;5050266;28;20505;-75
2022/10/30 03:51:06;;;;;;;12.95;5.15;;;;;;;10.61;100.00;99135.50;5050160;28;20043;-75
2022/10/30 03:53:32;;;;;;;15.15;5.53;;;;;;;10.61;100.00;99100.31;5049468;28;20033;-75
2022/10/30 03:55:59;;;;;;;16.10;5.45;;;;;;;10.71;100.00;99110.78;5053526;28;20033;-75
2022/10/30 03:58:26;;;;;;;16.98;5.38;;;;;;;10.74;100.00;99132.03;5044026;28;20048;-74
2022/10/30 04:00:52;;;;;;;15.13;5.38;;;;;;;10.62;100.00;99123.63;5047079;28;20016;-75
2022/10/30 04:03:17;;;;;;;14.88;5.57;;;;;;;10.62;100.00;99111.97;5050420;28;20044;-76
2022/10/30 04:05:42;;;;;;;16.35;5.25;;;;;;;10.47;100.00;99125.56;5046322;28;20474;-76
2022/10/30 04:08:11;;;;;;;17.90;5.88;;;;;;;10.35;100.00;99117.16;5046974;28;20028;-75
2022/10/30 04:10:40;;;;;;;12.50;5.40;;;;;;;10.47;100.00;99139.94;5064625;28;20061;-75
2022/10/30 04:13:06;;;;;;;14.55;5.55;;;;;;;10.47;100.00;99123.69;5044102;28;20037;-75
2022/10/30 04:15:32;;;;;;;15.23;5.63;;;;;;;10.48;100.00;99138.09;5047667;28;20059;-75
2022/10/30 04:17:58;;;;;;;16.80;5.55;;;;;;;10.43;100.00;99140.53;5048595;28;20075;-75
2022/10/30 04:20:24;;;;;;;15.52;5.75;;;;;;;10.33;100.00;99145.44;5051189;28;20938;-75
2022/10/30 04:22:58;;;;;;;13.98;5.45;;;;;;;10.25;100.00;99135.53;5048079;28;20104;-75
2022/10/30 04:25:24;;;;;;;16.50;5.60;;;;;;;10.14;100.00;99142.31;5050118;28;20033;-75
2022/10/30 04:27:51;;;;;;;11.02;5.47;;;;;;;10.12;100.00;99143.50;5107404;22;20051;-75
2022/10/30 04:30:20;;;;;;;13.65;5.35;;;;;;;10.00;100.00;99135.06;5110312;28;20047;-74
2022/10/30 04:32:49;;;;;;;11.18;4.72;;;;;;;9.85;100.00;99121.59;5112107;28;20499;-75
2022/10/30 04:35:17;;;;;;;15.82;6.10;;;;;;;10.04;100.00;99144.47;5105163;28;20035;-75
2022/10/30 04:37:43;;;;;;;15.43;5.40;;;;;;;9.90;100.00;99119.16;5094615;28;20024;-74
2022/10/30 04:40:08;;;;;;;16.52;5.85;;;;;;;9.96;100.00;99144.59;5091108;28;20035;-75
2022/10/30 04:42:34;;;;;;;10.43;5.50;;;;;;;9.92;100.00;99137.88;5088478;28;20020;-75
2022/10/30 04:45:01;;;;;;;10.82;5.78;;;;;;;9.90;100.00;99131.81;5084747;28;20016;-74
2022/10/30 04:47:27;;;;;;;12.35;5.20;;;;;;;9.92;100.00;99137.88;5090401;28;20050;-75
2022/10/30 04:49:52;;;;;;;19.52;6.05;;;;;;;9.90;100.00;99150.75;5092858;28;20028;-75
2022/10/30 04:52:17;;;;;;;18.55;6.03;;;;;;;9.77;100.00;99122.56;5095073;28;20038;-75
2022/10/30 04:54:43;;;;;;;11.73;5.50;;;;;;;9.85;100.00;99144.06;5092620;28;20162;-74
2022/10/30 04:57:09;;;;;;;12.05;5.25;;;;;;;9.77;100.00;99141.47;5070630;28;20088;-74
2022/10/30 04:59:34;;;;;;;11.38;5.30;;;;;;;9.70;100.00;99128.91;5092100;28;20449;-74
2022/10/30 05:02:00;;;;;;;8.90;5.60;;;;;;;9.73;100.00;99128.53;5091143;28;20024;-74
2022/10/30 05:04:25;;;;;;;13.98;5.68;;;;;;;9.71;100.00;99131.41;5095050;28;20081;-74
2022/10/30 05:06:50;;;;;;;12.40;5.10;;;;;;;9.86;100.00;99126.81;5077456;28;20058;-74
2022/10/30 05:09:15;;;;;;;15.57;5.45;;;;;;;9.80;100.00;99129.44;5071716;28;20131;-74
2022/10/30 05:11:41;;;;;;;12.10;6.10;;;;;;;9.74;100.00;99114.81;5073575;28;20032;-74
2022/10/30 05:14:06;;;;;;;17.90;5.70;;;;;;;9.77;100.00;99121.69;5065454;28;20031;-74
2022/10/30 05:16:32;;;;;;;11.80;5.40;;;;;;;9.81;100.00;99128.41;5092601;28;20088;-74
2022/10/30 05:18:57;;;;;;;9.23;5.07;;;;;;;9.73;100.00;99118.56;5076526;28;20051;-74
2022/10/30 05:21:22;;;;;;;14.27;5.60;;;;;;;9.69;100.00;99121.81;5091835;28;20032;-75
2022/10/30 05:23:48;;;;;;;9.68;5.43;;;;;;;9.64;100.00;99114.28;5085056;28;20028;-74
2022/10/30 05:26:13;;;;;;;13.93;5.47;;;;;;;9.59;100.00;99105.94;5075566;28;20023;-74
2022/10/30 05:28:39;;;;;;;18.58;5.63;;;;;;;9.67;100.00;99119.31;5075335;28;20023;-74
2022/10/30 05:31:04;;;;;;;13.68;5.78;;;;;;;9.56;100.00;99100.88;5077408;28;20428;-75
2022/10/30 05:33:29;;;;;;;13.45;5.60;;;;;;;9.61;100.00;99101.16;5073209;28;20047;-75
2022/10/30 05:35:54;;;;;;;9.82;5.70;;;;;;;9.86;100.00;99124.09;5076564;28;20043;-75
2022/10/30 05:38:20;;;;;;;11.60;5.60;;;;;;;9.85;100.00;99103.53;5108554;28;20000;-76
2022/10/30 05:40:45;;;;;;;11.63;5.10;;;;;;;9.97;100.00;99130.88;5114309;28;20031;-74
2022/10/30 05:43:11;;;;;;;14.35;5.15;;;;;;;9.73;100.00;99118.56;5090109;28;20005;-75
2022/10/30 05:45:36;;;;;;;19.60;5.43;;;;;;;9.88;100.00;99124.75;5111092;28;20044;-74
2022/10/30 05:48:04;;;;;;;12.48;4.57;;;;;;;9.71;100.00;99122.47;5095050;28;20044;-74
2022/10/30 05:50:30;;;;;;;16.52;5.82;;;;;;;9.77;100.00;99110.91;5113777;28;20028;-74
2022/10/30 05:53:04;;;;;;;11.52;5.13;;;;;;;9.61;100.00;99111.97;5114431;28;20055;-75
2022/10/30 05:55:30;;;;;;;17.33;6.35;;;;;;;9.57;100.00;99118.78;5112815;28;20024;-75
2022/10/30 05:58:01;;;;;;;10.35;5.15;;;;;;;9.56;100.00;99125.19;5094964;28;20042;-74
2022/10/30 06:00:29;;;;;;;9.73;5.18;;;;;;;9.40;100.00;99108.16;5093852;28;20016;-75
2022/10/30 06:03:06;;;;;;;15.80;5.43;;;;;;;9.40;100.00;99121.66;5099601;28;20077;-74
2022/10/30 06:05:33;;;;;;;16.05;5.57;;;;;;;9.44;100.00;99124.84;5070140;28;20012;-75
2022/10/30 06:07:59;;;;;;;19.45;6.38;;;;;;;9.30;100.00;99118.44;5094432;28;20019;-74
2022/10/30 06:10:25;;;;;;;12.00;5.63;;;;;;;9.28;100.00;99120.50;5076498;28;20028;-74
2022/10/30 06:13:02;;;;;;;9.55;5.10;;;;;;;9.29;100.00;99119.44;5077319;28;20020;-74
2022/10/30 06:15:28;;;;;;;13.75;5.43;;;;;;;9.36;100.00;99128.50;5114655;28;20020;-72
2022/10/30 06:17:55;;;;;;;8.27;4.80;;;;;;;9.27;100.00;99117.97;5106628;28;20023;-72
2022/10/30 06:20:24;;;;;;;11.68;5.68;;;;;;;9.40;100.00;99132.47;5111004;28;20031;-71
2022/10/30 06:22:57;;;;;;;11.25;5.50;;;;;;;9.41;100.00;99136.03;5103530;28;20016;-72
2022/10/30 06:25:23;;;;;;;13.68;5.68;;;;;;;9.60;100.00;99132.75;5085563;28;20032;-73
2022/10/30 06:27:49;;;;;;;12.23;5.32;;;;;;;9.59;100.00;99143.75;5093146;28;20090;-71
2022/10/30 06:30:14;;;;;;;12.73;5.28;;;;;;;9.62;100.00;99119.06;5093917;28;20087;-72
2022/10/30 06:32:40;;;;;;;11.23;5.53;;;;;;;9.80;100.00;99124.88;5093052;28;20103;-72
2022/10/30 06:35:05;;;;;;;13.85;4.95;;;;;;;9.82;100.00;99136.34;5097448;28;20034;-73
2022/10/30 06:37:31;;;;;;;16.33;6.10;;;;;;;9.87;100.00;99125.78;5096169;28;20489;-72
2022/10/30 06:39:56;;;;;;;16.67;5.32;;;;;;;10.01;100.00;99129.47;5077944;28;20505;-72
2022/10/30 06:42:22;;;;;;;12.23;4.82;;;;;;;10.34;100.00;99122.75;5094110;28;20031;-72
2022/10/30 06:44:50;;;;;;;13.77;5.43;;;;;;;10.79;100.00;99110.63;5089742;28;20138;-70
2022/10/30 06:47:15;;;;;;;10.73;4.70;;;;;;;11.52;100.00;99100.22;5089451;28;20042;-69
2022/10/30 06:49:41;;;;;;;9.18;4.65;;;;;;;12.48;100.00;99099.22;5086739;28;20029;-69
2022/10/30 06:52:06;;;;;;;15.80;4.55;;;;;;;13.41;100.00;99085.50;5091802;28;20026;-69
2022/10/30 06:54:31;;;;;;;13.07;4.70;;;;;;;14.61;100.00;99079.34;5092796;28;20108;-69
2022/10/30 06:56:57;;;;;;;11.45;3.70;;;;;;;15.36;100.00;99078.41;5085002;28;20101;-68
2022/10/30 06:59:23;;;;;;;13.82;4.57;;;;;;;16.15;100.00;99079.25;5066780;28;20028;-70
2022/10/30 07:01:48;;;;;;;9.75;4.22;;;;;;;17.27;100.00;99076.50;5082601;28;20103;-69
2022/10/30 07:04:13;;;;;;;14.57;3.70;;;;;;;18.06;100.00;99075.94;5089015;28;20115;-68
2022/10/30 07:06:38;;;;;;;9.90;3.47;;;;;;;18.91;100.00;99085.06;5071045;28;20035;-68
2022/10/30 07:09:04;;;;;;;8.10;3.70;;;;;;;19.37;100.00;99071.19;5093068;28;20477;-70
2022/10/30 07:11:29;;;;;;;12.30;4.72;;;;;;;19.61;99.79;99082.75;5092892;28;20397;-69
2022/10/30 07:13:54;;;;;;;13.07;5.00;;;;;;;19.51;100.00;99082.59;5091465;28;20024;-69
2022/10/30 07:16:20;;;;;;;13.75;5.18;;;;;;;19.43;100.00;99094.84;5071641;28;20027;-69
2022/10/30 07:18:45;;;;;;;8.10;4.18;;;;;;;19.11;100.00;99084.53;5083776;28;20020;-69
2022/10/30 07:21:10;;;;;;;7.35;3.65;;;;;;;20.12;93.25;99094.31;5089369;28;20111;-69
2022/10/30 07:23:35;;;;;;;11.95;4.05;;;;;;;20.04;94.14;99094.78;5090628;28;20039;-73
2022/10/30 07:26:01;;;;;;;10.82;4.00;;;;;;;21.39;77.62;99091.00;5072316;28;20122;-73
2022/10/30 07:28:26;;;;;;;10.82;3.92;;;;;;;21.58;81.79;99083.91;5071222;28;20497;-73
2022/10/30 07:30:51;;;;;;;12.63;4.60;;;;;;;22.97;68.68;99088.59;5088575;28;20031;-73
2022/10/30 07:33:16;;;;;;;10.85;4.45;;;;;;;22.80;65.42;99088.06;5090442;28;20024;-73
2022/10/30 07:35:42;;;;;;;10.93;4.65;;;;;;;23.38;61.72;99096.81;5082303;28;20036;-74
2022/10/30 07:38:10;;;;;;;12.38;6.55;;;;;;;22.09;67.09;99084.09;5090271;28;20051;-74
2022/10/30 07:40:36;;;;;;;8.10;4.10;;;;;;;22.90;66.23;99082.53;5088619;28;21619;-73
2022/10/30 07:43:03;;;;;;;10.10;4.68;;;;;;;23.11;63.92;99093.59;5088697;28;20024;-74
2022/10/30 07:45:28;;;;;;;14.25;4.47;;;;;;;23.50;60.97;99090.16;5086680;28;20089;-72
2022/10/30 07:47:54;;;;;;;11.07;4.22;;;;;;;22.90;64.92;99090.00;5088454;28;20024;-71
2022/10/30 07:50:20;;;;;;;11.13;3.53;;;;;;;23.10;66.10;99087.22;5086865;28;20067;-73
2022/10/30 07:52:46;;;;;;;11.45;3.67;;;;;;;23.34;63.88;99086.63;5083996;28;20106;-74
2022/10/30 07:55:11;;;;;;;12.55;4.00;;;;;;;23.77;62.43;99095.34;5089742;28;20111;-72
2022/10/30 07:57:38;;;;;;;10.65;3.47;;;;;;;24.32;58.46;99085.09;5090123;28;20020;-72
2022/10/30 08:00:06;;;;;;;15.55;3.78;;;;;;;23.56;61.50;99094.56;5084391;28;20027;-74
2022/10/30 08:02:31;;;;;;;12.40;3.78;;;;;;;23.81;60.84;99091.72;5086992;28;20043;-72
2022/10/30 08:04:57;;;;;;;8.40;3.35;;;;;;;24.91;57.55;99088.78;5089923;28;20020;-72
2022/10/30 08:07:22;;;;;;;11.65;3.60;;;;;;;24.37;57.03;99098.06;5090388;28;20020;-74
2022/10/30 08:09:48;;;;;;;9.82;3.25;;;;;;;25.06;55.29;99099.72;5085403;28;20039;-72
2022/10/30 08:12:13;;;;;;;9.05;3.17;;;;;;;24.61;55.76;99099.00;5085525;28;20122;-72
2022/10/30 08:14:39;;;;;;;9.48;2.83;;;;;;;24.91;55.01;99086.03;5089263;28;20036;-74
2022/10/30 08:17:06;;;;;;;11.52;3.00;;;;;;;24.78;56.35;99093.03;5090225;28;20062;-75
2022/10/30 08:19:32;;;;;;;7.75;2.72;;;;;;;25.07;57.70;99084.78;5073879;28;20485;-74
2022/10/30 08:21:58;;;;;;;8.43;2.92;;;;;;;25.74;55.42;99079.31;5086312;28;20028;-72
2022/10/30 08:24:23;;;;;;;10.93;3.50;;;;;;;25.88;52.70;99092.50;5072284;28;20145;-74
2022/10/30 08:26:51;;;;;;;12.30;3.60;;;;;;;25.51;53.94;99099.56;5088036;28;20093;-75
2022/10/30 08:29:16;;;;;;;5.22;2.55;;;;;;;25.26;54.24;99092.38;5093202;28;20028;-74
2022/10/30 08:31:42;;;;;;;10.18;2.90;;;;;;;27.04;51.11;99091.03;5070639;28;20444;-75
2022/10/30 08:34:08;;;;;;;7.05;2.90;;;;;;;26.67;50.49;99081.63;5091557;28;20020;-75
2022/10/30 08:36:33;;;;;;;8.73;3.50;;;;;;;28.15;48.75;99081.59;5093328;28;20024;-77
2022/10/30 08:38:58;;;;;;;14.65;4.03;;;;;;;27.81;47.51;99086.81;5091104;28;20350;-75
2022/10/30 08:41:24;;;;;;;10.10;3.75;;;;;;;28.63;45.62;99081.03;5075642;28;20446;-76
2022/10/30 08:43:49;;;;;;;10.95;4.03;;;;;;;29.03;45.80;99095.06;5074506;28;20323;-74
2022/10/30 08:46:14;;;;;;;8.52;3.15;;;;;;;28.68;46.21;99090.41;5093013;28;20047;-75
2022/10/30 08:48:40;;;;;;;7.88;2.83;;;;;;;29.63;44.68;99078.97;5092271;28;20032;-76
2022/10/30 08:51:06;;;;;;;7.60;2.55;;;;;;;28.90;44.89;99084.84;5090693;28;20032;-75
2022/10/30 08:53:31;;;;;;;7.15;3.13;;;;;;;28.76;46.03;99101.59;5090648;28;20730;-74
2022/10/30 08:55:56;;;;;;;14.27;3.60;;;;;;;29.61;44.08;99079.31;5093631;28;20020;-76
2022/10/30 08:58:22;;;;;;;9.23;4.00;;;;;;;29.66;44.98;99083.94;5067518;28;20016;-76
2022/10/30 09:00:47;;;;;;;9.38;3.50;;;;;;;29.73;44.54;99087.06;5089071;28;20088;-77
2022/10/30 09:03:12;;;;;;;10.35;3.58;;;;;;;30.61;43.51;99079.66;5091796;28;20111;-75
2022/10/30 09:05:38;;;;;;;12.07;3.40;;;;;;;30.15;44.01;99077.13;5092174;28;20422;-75
2022/10/30 09:08:03;;;;;;;15.48;3.72;;;;;;;30.62;43.13;99090.47;5087049;28;20036;-76
2022/10/30 09:10:29;;;;;;;7.55;3.40;;;;;;;29.62;44.34;99080.13;5090165;28;20039;-75
2022/10/30 09:12:56;;;;;;;13.27;3.85;;;;;;;30.14;44.69;99088.63;5088380;28;20066;-74
2022/10/30 09:15:22;;;;;;;13.70;3.95;;;;;;;30.93;42.68;99093.09;5071834;28;20024;-73
2022/10/30 09:17:47;;;;;;;12.70;3.95;;;;;;;31.20;42.35;99094.69;5091546;28;20024;-75
2022/10/30 09:20:12;;;;;;;9.95;3.15;;;;;;;31.39;42.77;99073.94;5091981;28;20445;-74
2022/10/30 09:22:42;;;;;;;7.30;2.75;;;;;;;32.08;41.82;99084.78;5088607;28;20024;-73
2022/10/30 09:25:07;;;;;;;17.52;4.22;;;;;;;33.63;39.50;99094.03;5073212;28;20951;-75
2022/10/30 09:27:37;;;;;;;14.77;3.33;;;;;;;33.54;39.17;99091.34;5087649;28;20111;-72
2022/10/30 09:30:03;;;;;;;11.05;3.80;;;;;;;32.32;40.80;99091.69;5087849;28;20035;-72
2022/10/30 09:32:29;;;;;;;10.10;4.05;;;;;;;30.40;44.39;99101.84;5090642;28;20031;-72
2022/10/30 09:34:54;;;;;;;8.63;3.00;;;;;;;31.34;42.25;99094.47;5091275;28;20389;-72
2022/10/30 09:37:19;;;;;;;10.88;3.63;;;;;;;32.52;39.46;99092.88;5088960;28;20277;-72
2022/10/30 09:39:45;;;;;;;9.20;3.00;;;;;;;33.11;38.89;99098.25;5091622;28;20020;-72
2022/10/30 09:42:35;;;;;;;9.20;2.88;;;;;;;32.17;40.23;99095.09;5091065;28;20284;-72
2022/10/30 09:45:19;;;;;;;10.50;2.67;;;;;;;32.09;40.41;99099.59;5076530;28;20032;-72
2022/10/30 09:48:12;;;;;;;11.90;2.92;;;;;;;30.68;42.62;99096.72;5086971;28;20028;-71
2022/10/30 09:51:14;;;;;;;9.38;2.65;;;;;;;31.44;41.58;99090.53;5088670;28;20031;-72
2022/10/30 09:53:57;;;;;;;12.95;2.85;;;;;;;32.67;40.91;99086.66;5092835;28;20103;-71
2022/10/30 09:56:30;;;;;;;10.32;2.88;;;;;;;33.70;39.45;99088.69;5089005;28;20583;-72
2022/10/30 09:59:07;;;;;;;10.52;3.20;;;;;;;33.58;40.07;99089.47;5082101;28;20020;-73
2022/10/30 10:01:38;;;;;;;16.75;2.85;;;;;;;33.25;40.74;99092.34;5084785;28;20057;-71
2022/10/30 10:04:19;;;;;;;11.05;2.97;;;;;;;32.89;40.88;99087.44;5084342;28;20122;-73
2022/10/30 10:06:50;;;;;;;11.32;3.30;;;;;;;32.22;42.75;99097.69;5090860;28;20035;-71
2022/10/30 10:09:26;;;;;;;8.85;3.10;;;;;;;33.15;41.18;99079.59;5084998;28;20106;-72
2022/10/30 10:12:11;;;;;;;13.23;3.17;;;;;;;33.19;39.91;99093.72;5082458;28;20677;-74
2022/10/30 10:14:43;;;;;;;11.50;3.25;;;;;;;34.21;39.18;99085.47;5082744;28;20035;-73
2022/10/30 10:17:13;;;;;;;14.27;3.28;;;;;;;34.85;38.34;99092.22;5083149;28;20388;-71
2022/10/30 10:19:47;;;;;;;8.30;3.40;;;;;;;34.36;39.05;99086.75;5080396;28;20070;-71
2022/10/30 10:22:30;;;;;;;9.75;2.88;;;;;;;35.20;35.85;99081.13;5083304;28;20035;-72
2022/10/30 10:24:56;;;;;;;9.60;2.83;;;;;;;34.48;35.35;99062.25;5060705;28;20153;-73
2022/10/30 10:27:39;;;;;;;9.65;2.90;;;;;;;35.17;36.48;99081.06;5087148;28;20111;-73
2022/10/30 10:30:14;;;;;;;9.05;2.90;;;;;;;34.72;37.50;99076.59;5075122;28;20027;-73
2022/10/30 10:32:59;;;;;;;9.05;2.58;;;;;;;35.24;37.10;99078.41;5066920;28;20039;-73
2022/10/30 10:35:52;;;;;;;8.35;2.70;;;;;;;34.59;36.96;99075.81;5089383;28;20020;-73
2022/10/30 10:38:31;;;;;;;13.38;3.28;;;;;;;34.87;36.97;99070.16;5085378;28;20032;-73
2022/10/30 10:41:13;;;;;;;13.07;2.88;;;;;;;35.66;35.16;99075.09;5067411;28;20579;-71
2022/10/30 10:44:03;;;;;;;8.23;2.58;;;;;;;35.70;35.42;99061.91;5087760;28;20169;-72
2022/10/30 10:47:07;;;;;;;12.07;3.30;;;;;;;34.61;36.09;99068.66;5077459;28;20032;-71
2022/10/30 10:49:59;;;;;;;9.90;2.97;;;;;;;34.74;36.83;99060.97;5083529;28;20039;-73
2022/10/30 10:52:37;;;;;;;5.60;2.17;;;;;;;34.28;37.21;99065.22;5086787;28;20032;-71
2022/10/30 10:55:09;;;;;;;10.65;2.90;;;;;;;34.89;35.35;99057.38;5088466;28;20078;-72
2022/10/30 10:57:39;;;;;;;18.40;2.75;;;;;;;35.00;35.43;99059.66;5088061;28;20028;-72
2022/10/30 11:00:12;;;;;;;10.43;2.65;;;;;;;34.61;34.84;99054.63;5087021;28;20028;-71
2022/10/30 11:02:42;;;;;;;8.73;2.55;;;;;;;35.52;33.64;99053.81;5084173;28;20361;-71
2022/10/30 11:05:16;;;;;;;7.60;1.92;;;;;;;35.26;34.17;99056.38;5087263;28;20028;-72
2022/10/30 11:07:47;;;;;;;6.78;2.15;;;;;;;35.50;32.17;99044.94;5085854;28;20024;-73
2022/10/30 11:10:16;;;;;;;10.05;3.90;;;;;;;35.14;32.64;99053.66;5086808;28;20118;-72
2022/10/30 11:12:42;;;;;;;8.10;2.22;;;;;;;35.15;32.67;99035.59;5085368;28;20054;-71
2022/10/30 11:15:13;;;;;;;10.68;2.42;;;;;;;35.75;31.56;99044.75;5080821;28;20032;-72
2022/10/30 11:17:49;;;;;;;9.95;2.30;;;;;;;36.60;30.78;99036.59;5082738;28;20030;-72
2022/10/30 11:20:19;;;;;;;12.98;2.05;;;;;;;36.62;30.09;99035.03;5084399;28;20032;-71
2022/10/30 11:22:49;;;;;;;9.38;2.65;;;;;;;36.54;29.95;99021.16;5088142;28;20085;-71
2022/10/30 11:25:19;;;;;;;11.18;2.50;;;;;;;36.29;30.08;99027.09;5087460;28;20027;-71
2022/10/30 11:27:48;;;;;;;7.47;2.08;;;;;;;35.81;31.28;99020.75;5089622;28;20031;-71
2022/10/30 11:30:20;;;;;;;6.68;2.35;;;;;;;35.26;31.91;99031.88;5079931;28;20743;-70